Time;durP1;ratioP1;P1;durP2;ratioP2;P2;SDS_P1;SDS_P2;PMS_P1;PMS_P2;Temp;Humidity;BMP_temperature;BMP_pressure;BME280_temperature;BME280_humidity;BME280_pressure;Samples;Min_cycle;Max_cycle;Signal;HPM_P1;HPM_P2
2021/07/11 00:00:07;;;;;;;0.75;0.43;;;23.10;71.50;;;;;;4209398;28;20066;-54
2021/07/11 00:02:33;;;;;;;0.30;0.30;;;23.10;71.50;;;;;;4209068;28;20154;-53
2021/07/11 00:04:55;;;;;;;0.47;0.47;;;23.10;71.80;;;;;;4209062;27;20058;-49
2021/07/11 00:07:17;;;;;;;0.10;0.10;;;23.10;71.80;;;;;;4196707;27;20052;-52
2021/07/11 00:09:40;;;;;;;0.00;0.00;;;23.10;71.90;;;;;;4191966;27;20056;-53
2021/07/11 00:12:02;;;;;;;0.60;0.60;;;23.10;71.90;;;;;;4201380;28;20101;-49
2021/07/11 00:14:24;;;;;;;0.00;0.00;;;23.10;72.00;;;;;;4192208;28;20052;-50
2021/07/11 00:16:46;;;;;;;0.08;0.08;;;23.10;72.00;;;;;;4208373;28;20125;-48
2021/07/11 00:19:09;;;;;;;0.00;0.00;;;23.10;72.10;;;;;;4206216;28;20048;-54
2021/07/11 00:21:30;;;;;;;0.00;0.00;;;23.10;72.10;;;;;;4207451;28;20059;-52
2021/07/11 00:23:53;;;;;;;3.05;1.38;;;23.10;72.10;;;;;;4209272;28;20047;-53
2021/07/11 00:26:17;;;;;;;0.30;0.15;;;23.10;72.10;;;;;;4208703;28;20052;-52
2021/07/11 00:28:40;;;;;;;0.10;0.10;;;23.10;72.10;;;;;;4208634;28;20063;-50
2021/07/11 00:31:02;;;;;;;0.05;0.05;;;23.10;72.10;;;;;;4208449;28;20051;-52
2021/07/11 00:33:24;;;;;;;0.20;0.20;;;23.10;72.10;;;;;;4208445;28;20094;-53
2021/07/11 00:35:46;;;;;;;0.10;0.10;;;23.10;72.20;;;;;;4208597;28;20426;-50
2021/07/11 00:38:08;;;;;;;0.10;0.10;;;23.10;72.10;;;;;;4208287;28;20055;-52
2021/07/11 00:40:32;;;;;;;0.52;0.52;;;23.10;73.00;;;;;;4208736;28;20048;-49
2021/07/11 00:42:56;;;;;;;0.00;0.00;;;23.10;72.10;;;;;;4206977;28;20051;-52
2021/07/11 00:45:19;;;;;;;0.00;0.00;;;23.10;72.10;;;;;;4208304;28;20067;-52
2021/07/11 00:47:44;;;;;;;0.00;0.00;;;23.00;72.10;;;;;;4207119;28;20620;-53
2021/07/11 00:50:10;;;;;;;0.13;0.13;;;23.00;72.10;;;;;;4207001;28;20059;-54
2021/07/11 00:52:33;;;;;;;0.10;0.10;;;23.00;72.20;;;;;;4190121;28;20048;-48
2021/07/11 00:54:55;;;;;;;0.73;0.63;;;23.00;72.30;;;;;;4190292;28;20078;-53
2021/07/11 00:57:18;;;;;;;0.00;0.00;;;23.00;72.40;;;;;;4190320;28;20101;-50
2021/07/11 00:59:42;;;;;;;0.00;0.00;;;23.00;72.50;;;;;;4191387;28;20052;-51
2021/07/11 01:02:10;;;;;;;0.17;0.17;;;23.00;72.50;;;;;;4191575;28;20045;-50
2021/07/11 01:04:43;;;;;;;0.20;0.20;;;23.00;72.50;;;;;;4176626;28;20053;-49
2021/07/11 01:07:09;;;;;;;0.00;0.00;;;23.00;72.60;;;;;;4205161;28;20139;-51
2021/07/11 01:09:38;;;;;;;15.50;0.95;;;22.90;72.50;;;;;;4207911;28;20101;-47
2021/07/11 01:12:05;;;;;;;0.20;0.20;;;22.90;72.40;;;;;;4207964;28;20054;-51
2021/07/11 01:14:36;;;;;;;0.30;0.30;;;22.90;72.50;;;;;;4206370;28;20047;-48
2021/07/11 01:17:03;;;;;;;0.10;0.10;;;22.90;73.40;;;;;;4208082;28;20055;-51
2021/07/11 01:19:40;;;;;;;1.25;1.15;;;22.90;72.60;;;;;;4207394;27;20058;-51
2021/07/11 01:22:07;;;;;;;0.60;0.60;;;22.90;72.70;;;;;;4207429;28;20056;-52
2021/07/11 01:24:37;;;;;;;0.30;0.30;;;22.90;72.70;;;;;;4206891;28;20056;-52
2021/07/11 01:27:03;;;;;;;0.17;0.17;;;22.90;72.70;;;;;;4207619;28;20055;-51
2021/07/11 01:29:27;;;;;;;0.00;0.00;;;22.90;72.70;;;;;;4206101;28;20081;-51
2021/07/11 01:31:49;;;;;;;0.15;0.15;;;22.90;72.80;;;;;;4208173;28;20052;-51
2021/07/11 01:34:12;;;;;;;0.00;0.00;;;22.90;72.80;;;;;;4208120;28;20494;-52
2021/07/11 01:36:34;;;;;;;0.00;0.00;;;22.90;72.80;;;;;;4207661;28;20048;-54
2021/07/11 01:38:59;;;;;;;0.52;0.47;;;22.90;72.80;;;;;;4195599;27;20048;-47
2021/07/11 01:41:32;;;;;;;0.10;0.10;;;22.90;72.80;;;;;;4207325;27;20555;-52
2021/07/11 01:43:56;;;;;;;0.10;0.10;;;22.80;72.70;;;;;;4207921;28;20040;-48
2021/07/11 01:46:20;;;;;;;0.00;0.00;;;22.90;73.30;;;;;;4205981;28;20048;-47
2021/07/11 01:48:44;;;;;;;0.00;0.00;;;22.90;72.80;;;;;;4207610;28;20052;-53
2021/07/11 01:51:06;;;;;;;0.00;0.00;;;22.90;72.80;;;;;;4207627;28;20211;-52
2021/07/11 01:53:31;;;;;;;0.00;0.00;;;22.80;72.80;;;;;;4206187;28;20052;-49
2021/07/11 01:55:54;;;;;;;0.00;0.00;;;22.80;72.80;;;;;;4206473;28;20044;-47
2021/07/11 01:58:18;;;;;;;0.00;0.00;;;22.80;72.80;;;;;;4190415;28;20769;-49
2021/07/11 02:00:43;;;;;;;0.00;0.00;;;22.80;72.80;;;;;;4206470;28;20071;-48
2021/07/11 02:03:15;;;;;;;0.00;0.00;;;22.80;72.80;;;;;;4207274;28;20048;-48
2021/07/11 02:05:46;;;;;;;0.10;0.10;;;22.80;72.90;;;;;;4207493;28;20461;-47
2021/07/11 02:08:11;;;;;;;0.10;0.10;;;22.80;72.90;;;;;;4206386;28;20503;-48
2021/07/11 02:10:33;;;;;;;0.25;0.25;;;22.80;72.90;;;;;;4207806;28;20048;-50
2021/07/11 02:13:18;;;;;;;0.20;0.20;;;22.80;72.90;;;;;;4205835;28;20072;-51
2021/07/11 02:15:45;;;;;;;0.55;0.45;;;22.80;73.00;;;;;;4207775;28;20395;-51
2021/07/11 02:18:08;;;;;;;0.20;0.20;;;22.80;73.00;;;;;;4206540;28;20064;-48
2021/07/11 02:20:38;;;;;;;0.08;0.08;;;22.70;73.00;;;;;;4205997;28;20198;-50
2021/07/11 02:23:02;;;;;;;0.00;0.00;;;22.70;73.00;;;;;;4207527;28;20551;-50
2021/07/11 02:25:26;;;;;;;0.00;0.00;;;22.70;73.00;;;;;;4207307;28;20051;-51
2021/07/11 02:27:59;;;;;;;0.22;0.22;;;22.70;73.10;;;;;;4206965;28;20068;-50
2021/07/11 02:30:27;;;;;;;0.35;0.35;;;22.70;73.10;;;;;;4206034;28;20521;-49
2021/07/11 02:32:51;;;;;;;0.20;0.20;;;22.70;73.20;;;;;;4207562;28;20048;-50
2021/07/11 02:35:15;;;;;;;0.30;0.30;;;22.70;73.20;;;;;;4207155;28;20078;-48
2021/07/11 02:37:43;;;;;;;0.00;0.00;;;22.70;73.20;;;;;;4207724;28;20044;-50
2021/07/11 02:40:08;;;;;;;0.00;0.00;;;22.70;73.20;;;;;;4207653;28;20063;-52
2021/07/11 02:42:31;;;;;;;0.20;0.20;;;22.70;73.30;;;;;;4209087;28;20062;-49
2021/07/11 02:44:55;;;;;;;0.13;0.13;;;22.70;73.30;;;;;;4210471;28;20488;-53
2021/07/11 02:47:29;;;;;;;0.13;0.13;;;22.70;73.30;;;;;;4222810;27;20062;-51
2021/07/11 02:49:57;;;;;;;0.60;0.60;;;22.70;73.40;;;;;;4204785;28;20059;-50
2021/07/11 02:52:21;;;;;;;2.80;1.60;;;22.60;73.30;;;;;;4209866;28;20051;-48
2021/07/11 02:54:48;;;;;;;0.08;0.08;;;22.60;73.40;;;;;;4209042;28;20093;-53
2021/07/11 02:57:11;;;;;;;0.55;0.35;;;22.60;73.40;;;;;;4193449;28;20486;-48
2021/07/11 02:59:36;;;;;;;0.03;0.03;;;22.60;73.50;;;;;;4192234;28;20106;-50
2021/07/11 03:02:02;;;;;;;0.05;0.05;;;22.60;73.50;;;;;;4193306;28;20067;-52
2021/07/11 03:04:28;;;;;;;0.45;0.45;;;22.60;73.60;;;;;;4193125;28;20131;-49
2021/07/11 03:06:53;;;;;;;0.00;0.00;;;22.60;73.50;;;;;;4210315;28;20055;-49
2021/07/11 03:09:15;;;;;;;0.17;0.17;;;22.60;73.60;;;;;;4208796;28;20486;-49
2021/07/11 03:11:40;;;;;;;0.08;0.08;;;22.50;73.60;;;;;;4208942;27;20076;-51
2021/07/11 03:14:06;;;;;;;0.00;0.00;;;22.60;73.70;;;;;;4208306;27;20067;-53
2021/07/11 03:16:32;;;;;;;0.03;0.03;;;22.60;73.70;;;;;;4207767;28;20414;-50
2021/07/11 03:18:56;;;;;;;0.00;0.00;;;22.50;73.70;;;;;;4176339;28;20049;-49
2021/07/11 03:21:23;;;;;;;0.00;0.00;;;22.60;73.70;;;;;;4174634;28;20068;-49
2021/07/11 03:23:49;;;;;;;0.00;0.00;;;22.50;73.80;;;;;;4175122;28;20499;-48
2021/07/11 03:26:12;;;;;;;0.00;0.00;;;22.50;73.80;;;;;;4174951;28;20141;-53
2021/07/11 03:28:35;;;;;;;0.00;0.00;;;22.50;73.80;;;;;;4193321;28;20049;-49
2021/07/11 03:30:59;;;;;;;0.00;0.00;;;22.50;73.80;;;;;;4188795;28;20059;-50
2021/07/11 03:33:23;;;;;;;0.00;0.00;;;22.50;73.90;;;;;;4193027;28;20045;-51
2021/07/11 03:35:50;;;;;;;0.00;0.00;;;22.50;73.90;;;;;;4206005;28;20132;-51
2021/07/11 03:38:18;;;;;;;0.15;0.15;;;22.50;74.00;;;;;;4207790;28;20048;-50
2021/07/11 03:40:45;;;;;;;0.55;0.55;;;22.50;74.00;;;;;;4207801;28;20052;-52
2021/07/11 03:43:12;;;;;;;0.93;0.90;;;22.50;74.00;;;;;;4207931;28;20051;-48
2021/07/11 03:45:35;;;;;;;0.10;0.10;;;22.50;74.00;;;;;;4209225;28;20485;-48
2021/07/11 03:48:03;;;;;;;0.05;0.05;;;22.50;74.00;;;;;;4209362;28;20048;-50
2021/07/11 03:50:27;;;;;;;0.98;0.73;;;22.50;74.00;;;;;;4209030;28;20124;-50
2021/07/11 03:52:53;;;;;;;0.22;0.22;;;22.50;74.00;;;;;;4209569;28;20433;-51
2021/07/11 03:55:18;;;;;;;0.00;0.00;;;22.50;74.10;;;;;;4208188;28;20052;-50
2021/07/11 03:57:44;;;;;;;0.00;0.00;;;22.50;74.00;;;;;;4208872;28;20047;-52
2021/07/11 04:00:08;;;;;;;0.00;0.00;;;22.50;74.00;;;;;;4208058;28;20513;-49
2021/07/11 04:02:36;;;;;;;0.15;0.15;;;22.50;74.00;;;;;;4209051;28;20058;-50
2021/07/11 04:05:00;;;;;;;0.00;0.00;;;22.50;74.10;;;;;;4208957;28;20052;-53
2021/07/11 04:07:25;;;;;;;0.00;0.00;;;22.50;74.10;;;;;;4208870;28;20051;-47
2021/07/11 04:09:48;;;;;;;0.30;0.30;;;22.50;74.10;;;;;;4209024;28;20052;-47
2021/07/11 04:12:10;;;;;;;1.55;0.47;;;22.50;74.10;;;;;;4208797;28;20060;-47
2021/07/11 04:14:33;;;;;;;0.00;0.00;;;22.50;74.10;;;;;;4209282;28;20850;-51
2021/07/11 04:17:00;;;;;;;0.10;0.10;;;22.50;74.10;;;;;;4209250;28;20052;-52
2021/07/11 04:19:25;;;;;;;0.38;0.38;;;22.50;74.10;;;;;;4208575;28;20048;-50
2021/07/11 04:21:50;;;;;;;0.35;0.35;;;22.50;74.10;;;;;;4208733;28;20048;-51
2021/07/11 04:24:12;;;;;;;0.08;0.08;;;22.50;74.10;;;;;;4209165;28;20403;-48
2021/07/11 04:26:35;;;;;;;0.10;0.10;;;22.50;74.10;;;;;;4209028;27;20044;-48
2021/07/11 04:29:00;;;;;;;0.00;0.00;;;22.50;74.10;;;;;;4208738;28;20048;-53
2021/07/11 04:31:23;;;;;;;0.00;0.00;;;22.50;74.10;;;;;;4208847;28;20048;-48
2021/07/11 04:33:47;;;;;;;0.20;0.20;;;22.50;74.00;;;;;;4208803;28;20052;-53
2021/07/11 04:36:10;;;;;;;0.00;0.00;;;22.50;74.00;;;;;;4208775;28;20561;-52
2021/07/11 04:38:32;;;;;;;0.00;0.00;;;22.50;74.00;;;;;;4208536;28;20070;-51
2021/07/11 04:40:55;;;;;;;0.00;0.00;;;22.50;75.00;;;;;;4208868;28;20418;-50
2021/07/11 04:43:17;;;;;;;0.00;0.00;;;22.50;74.10;;;;;;4208441;28;20105;-52
2021/07/11 04:45:39;;;;;;;0.30;0.30;;;22.50;74.10;;;;;;4208620;28;20047;-48
2021/07/11 04:48:03;;;;;;;0.00;0.00;;;22.50;74.00;;;;;;4208583;28;20067;-51
2021/07/11 04:50:25;;;;;;;0.10;0.10;;;22.50;74.00;;;;;;4192033;28;20489;-47
2021/07/11 04:52:48;;;;;;;0.20;0.20;;;22.50;73.90;;;;;;4191932;28;20067;-49
2021/07/11 04:55:12;;;;;;;0.15;0.15;;;22.50;73.90;;;;;;4191774;28;20093;-48
2021/07/11 04:57:34;;;;;;;0.00;0.00;;;22.50;73.80;;;;;;4190165;28;20680;-52
2021/07/11 04:59:59;;;;;;;0.10;0.10;;;22.50;73.80;;;;;;4191430;28;20114;-52
2021/07/11 05:02:21;;;;;;;0.00;0.00;;;22.50;73.80;;;;;;4191610;28;20117;-50
2021/07/11 05:04:45;;;;;;;0.10;0.10;;;22.50;73.80;;;;;;4205881;28;20052;-51
2021/07/11 05:07:19;;;;;;;0.00;0.00;;;22.50;73.80;;;;;;4208147;28;20151;-51
2021/07/11 05:09:41;;;;;;;0.77;0.38;;;22.50;73.80;;;;;;4207902;28;20056;-51
2021/07/11 05:12:04;;;;;;;0.30;0.30;;;22.50;73.80;;;;;;4207837;28;20054;-52
2021/07/11 05:14:27;;;;;;;0.52;0.52;;;22.50;73.80;;;;;;4207754;28;20051;-50
2021/07/11 05:16:49;;;;;;;0.00;0.00;;;22.50;73.80;;;;;;4208197;28;20051;-52
2021/07/11 05:19:11;;;;;;;1.65;1.05;;;22.50;73.70;;;;;;4207828;28;20059;-53
2021/07/11 05:21:35;;;;;;;5.05;1.20;;;22.60;74.50;;;;;;4207911;28;20051;-50
2021/07/11 05:23:57;;;;;;;0.00;0.00;;;22.60;74.30;;;;;;4207631;28;20070;-49
2021/07/11 05:26:19;;;;;;;0.00;0.00;;;22.70;74.00;;;;;;4208352;28;20158;-48
2021/07/11 05:28:44;;;;;;;0.00;0.00;;;22.70;73.70;;;;;;4205219;28;20036;-47
2021/07/11 05:31:06;;;;;;;0.85;0.50;;;22.70;73.60;;;;;;4208026;28;20056;-46
2021/07/11 05:33:28;;;;;;;0.10;0.10;;;22.70;73.40;;;;;;4207836;28;20052;-48
2021/07/11 05:35:50;;;;;;;0.03;0.03;;;22.70;73.20;;;;;;4207902;28;20051;-51
2021/07/11 05:38:14;;;;;;;0.50;0.50;;;22.80;73.90;;;;;;4207806;28;20056;-49
2021/07/11 05:40:36;;;;;;;0.00;0.00;;;22.80;73.00;;;;;;4207667;28;20040;-48
2021/07/11 05:42:58;;;;;;;0.08;0.08;;;22.80;72.90;;;;;;4207742;28;20406;-49
2021/07/11 05:45:20;;;;;;;0.00;0.00;;;22.80;72.80;;;;;;4235224;27;20084;-51
2021/07/11 05:47:42;;;;;;;0.00;0.00;;;22.80;72.80;;;;;;4202920;28;20409;-48
2021/07/11 05:50:06;;;;;;;0.40;0.32;;;22.80;73.00;;;;;;4207829;28;20059;-49
2021/07/11 05:52:28;;;;;;;0.10;0.10;;;22.80;72.90;;;;;;4207781;28;20128;-48
2021/07/11 05:54:51;;;;;;;0.10;0.10;;;22.80;73.10;;;;;;4207735;28;20486;-47
2021/07/11 05:57:13;;;;;;;0.30;0.30;;;22.80;73.50;;;;;;4208159;28;20506;-49
2021/07/11 05:59:35;;;;;;;0.10;0.10;;;22.80;73.20;;;;;;4207599;28;20067;-50
2021/07/11 06:01:58;;;;;;;2.35;0.95;;;22.70;73.30;;;;;;4207809;28;20052;-48
2021/07/11 06:04:20;;;;;;;0.38;0.38;;;22.70;73.40;;;;;;4190538;28;20045;-50
2021/07/11 06:06:41;;;;;;;0.10;0.10;;;22.70;73.50;;;;;;4190950;28;20087;-52
2021/07/11 06:09:04;;;;;;;0.95;0.88;;;22.70;73.50;;;;;;4190764;28;20045;-47
2021/07/11 06:11:27;;;;;;;0.00;0.00;;;22.70;73.60;;;;;;4190807;28;20048;-50
2021/07/11 06:13:49;;;;;;;0.15;0.15;;;22.70;73.70;;;;;;4190024;28;20057;-48
2021/07/11 06:16:11;;;;;;;0.00;0.00;;;22.60;73.70;;;;;;4194369;28;20048;-48
2021/07/11 06:18:33;;;;;;;0.10;0.10;;;22.60;73.70;;;;;;4209805;27;20138;-52
2021/07/11 06:20:56;;;;;;;0.10;0.10;;;22.70;73.80;;;;;;4210879;28;20051;-52
2021/07/11 06:23:18;;;;;;;0.00;0.00;;;22.60;77.10;;;;;;4210204;28;20097;-50
2021/07/11 06:25:40;;;;;;;0.00;0.00;;;22.70;83.50;;;;;;4194305;28;20850;-47
2021/07/11 06:28:04;;;;;;;0.00;0.00;;;22.80;84.60;;;;;;4193868;28;20056;-50
2021/07/11 06:30:27;;;;;;;0.10;0.10;;;22.80;84.20;;;;;;4193805;28;20139;-49
2021/07/11 06:32:50;;;;;;;0.32;0.32;;;22.80;82.00;;;;;;4203277;28;20110;-52
2021/07/11 06:35:15;;;;;;;0.00;0.00;;;22.80;80.70;;;;;;4210647;28;20410;-52
2021/07/11 06:37:37;;;;;;;0.30;0.30;;;22.80;79.40;;;;;;4210797;28;20112;-50
2021/07/11 06:39:59;;;;;;;0.00;0.00;;;22.80;79.40;;;;;;4210578;28;20047;-53
2021/07/11 06:42:21;;;;;;;0.00;0.00;;;22.80;78.40;;;;;;4210117;28;20058;-46
2021/07/11 06:44:44;;;;;;;0.17;0.17;;;22.90;78.00;;;;;;4210195;28;20051;-47
2021/07/11 06:47:08;;;;;;;0.20;0.20;;;22.90;77.50;;;;;;4209892;28;20064;-47
2021/07/11 06:49:29;;;;;;;0.00;0.00;;;23.00;77.10;;;;;;4193634;28;20714;-46
2021/07/11 06:51:52;;;;;;;0.15;0.15;;;23.00;76.60;;;;;;4193336;28;20048;-47
2021/07/11 06:54:14;;;;;;;0.10;0.10;;;23.10;76.00;;;;;;4208808;28;20534;-46
2021/07/11 06:56:36;;;;;;;0.00;0.00;;;23.10;76.90;;;;;;4210696;28;20399;-46
2021/07/11 06:58:58;;;;;;;0.00;0.00;;;23.20;76.90;;;;;;4210435;28;20051;-48
2021/07/11 07:01:22;;;;;;;0.08;0.08;;;23.20;76.40;;;;;;4210472;28;20048;-48
2021/07/11 07:03:44;;;;;;;0.00;0.00;;;23.30;75.80;;;;;;4209669;28;20040;-46
2021/07/11 07:06:08;;;;;;;0.32;0.32;;;23.30;75.20;;;;;;4209966;28;20055;-50
2021/07/11 07:08:30;;;;;;;0.30;0.30;;;23.50;74.70;;;;;;4210277;28;20056;-47
2021/07/11 07:10:52;;;;;;;0.22;0.22;;;23.50;75.00;;;;;;4210046;28;20767;-47
2021/07/11 07:13:14;;;;;;;0.08;0.08;;;23.50;73.80;;;;;;4209685;28;20070;-47
2021/07/11 07:15:36;;;;;;;0.50;0.50;;;23.60;73.40;;;;;;4209739;28;20082;-50
2021/07/11 07:18:00;;;;;;;0.00;0.00;;;23.70;73.00;;;;;;4207959;28;20101;-47
2021/07/11 07:20:22;;;;;;;0.15;0.15;;;23.70;73.40;;;;;;4209158;28;20101;-49
2021/07/11 07:22:44;;;;;;;0.73;0.73;;;23.70;73.20;;;;;;4209937;28;20047;-50
2021/07/11 07:25:09;;;;;;;0.10;0.10;;;23.80;74.10;;;;;;4209239;28;20062;-47
2021/07/11 07:27:31;;;;;;;0.10;0.10;;;23.80;74.70;;;;;;4202357;28;20044;-49
2021/07/11 07:29:53;;;;;;;0.20;0.20;;;23.80;74.80;;;;;;4207866;28;20561;-48
2021/07/11 07:32:15;;;;;;;0.10;0.10;;;23.80;74.80;;;;;;4206731;28;20136;-47
2021/07/11 07:34:38;;;;;;;0.57;0.30;;;23.90;74.60;;;;;;4203018;28;20851;-51
2021/07/11 07:37:00;;;;;;;0.90;0.90;;;23.90;74.50;;;;;;4207798;28;20032;-46
2021/07/11 07:39:22;;;;;;;0.30;0.30;;;23.90;74.50;;;;;;4208225;28;20044;-49
2021/07/11 07:41:44;;;;;;;0.10;0.10;;;23.90;74.30;;;;;;4206554;28;20048;-49
2021/07/11 07:44:07;;;;;;;0.05;0.05;;;23.90;74.20;;;;;;4201241;28;20048;-48
2021/07/11 07:46:29;;;;;;;0.20;0.20;;;24.00;74.00;;;;;;4201820;28;20048;-51
2021/07/11 07:48:51;;;;;;;0.60;0.60;;;23.90;73.70;;;;;;4207551;28;20138;-48
2021/07/11 07:51:15;;;;;;;1.40;1.40;;;24.00;73.70;;;;;;4206362;28;20440;-48
2021/07/11 07:53:37;;;;;;;6.22;1.35;;;24.00;74.50;;;;;;4205255;28;20417;-53
2021/07/11 07:55:59;;;;;;;0.30;0.30;;;23.90;73.40;;;;;;4205553;28;20044;-48
2021/07/11 07:58:21;;;;;;;1.00;0.95;;;24.00;73.50;;;;;;4207837;28;20448;-48
2021/07/11 08:00:45;;;;;;;0.38;0.38;;;24.00;73.70;;;;;;4206628;28;20491;-50
2021/07/11 08:03:08;;;;;;;0.28;0.28;;;24.00;73.80;;;;;;4204885;28;20438;-47
2021/07/11 08:05:30;;;;;;;3.05;1.23;;;23.90;74.00;;;;;;4206434;28;20054;-49
2021/07/11 08:07:54;;;;;;;0.30;0.30;;;24.00;74.50;;;;;;4207228;28;20062;-49
2021/07/11 08:10:16;;;;;;;0.13;0.13;;;24.00;74.40;;;;;;4206526;28;20048;-47
2021/07/11 08:12:39;;;;;;;0.28;0.28;;;24.00;74.30;;;;;;4206831;28;20054;-47
2021/07/11 08:15:01;;;;;;;0.10;0.10;;;24.00;74.50;;;;;;4204072;28;20505;-47
2021/07/11 08:17:24;;;;;;;0.15;0.15;;;24.00;74.30;;;;;;4202306;28;20076;-47
2021/07/11 08:19:46;;;;;;;0.00;0.00;;;24.00;73.80;;;;;;4199167;28;20050;-50
2021/07/11 08:22:08;;;;;;;1.27;1.23;;;24.00;73.60;;;;;;4199612;28;20098;-49
2021/07/11 08:24:31;;;;;;;0.03;0.03;;;24.00;73.80;;;;;;4194298;28;20047;-50
2021/07/11 08:26:54;;;;;;;0.55;0.55;;;24.10;73.70;;;;;;4198615;28;20082;-47
2021/07/11 08:29:16;;;;;;;0.65;0.65;;;24.10;73.50;;;;;;4205539;28;20561;-52
2021/07/11 08:31:38;;;;;;;0.00;0.00;;;24.10;73.60;;;;;;4204188;27;20036;-51
2021/07/11 08:34:01;;;;;;;0.00;0.00;;;24.10;73.50;;;;;;4190617;28;20090;-49
2021/07/11 08:36:22;;;;;;;0.28;0.28;;;24.10;73.30;;;;;;4190161;28;20084;-47
2021/07/11 08:38:44;;;;;;;0.00;0.00;;;24.10;73.10;;;;;;4202425;28;20063;-49
2021/07/11 08:41:09;;;;;;;0.30;0.30;;;24.10;73.00;;;;;;4204005;28;20052;-48
2021/07/11 08:43:31;;;;;;;1.70;1.60;;;24.10;73.20;;;;;;4203758;28;20056;-46
2021/07/11 08:45:53;;;;;;;1.45;1.40;;;24.20;72.90;;;;;;4207095;28;20055;-48
2021/07/11 08:48:16;;;;;;;0.03;0.03;;;24.20;72.50;;;;;;4203190;28;20058;-52
2021/07/11 08:50:39;;;;;;;0.00;0.00;;;24.20;72.50;;;;;;4203252;28;20094;-50
2021/07/11 08:53:01;;;;;;;0.30;0.30;;;24.20;72.50;;;;;;4207261;28;20044;-46
2021/07/11 08:55:25;;;;;;;1.13;1.05;;;24.20;72.30;;;;;;4206657;28;20040;-46
2021/07/11 08:57:51;;;;;;;0.65;0.65;;;24.30;72.10;;;;;;4201948;28;20132;-47
2021/07/11 09:00:15;;;;;;;0.08;0.08;;;24.30;72.10;;;;;;4198131;28;20050;-47
2021/07/11 09:02:38;;;;;;;0.77;0.77;;;24.30;72.00;;;;;;4188019;28;20060;-50
2021/07/11 09:05:00;;;;;;;0.10;0.10;;;24.30;71.80;;;;;;4186514;28;20045;-49
2021/07/11 09:07:23;;;;;;;0.47;0.47;;;24.30;72.50;;;;;;4190231;28;20134;-47
2021/07/11 09:09:46;;;;;;;0.00;0.00;;;24.30;71.30;;;;;;4188396;28;20048;-48
2021/07/11 09:12:11;;;;;;;0.73;0.73;;;24.30;71.10;;;;;;4189835;28;20058;-48
2021/07/11 09:14:55;;;;;;;0.10;0.10;;;24.30;71.00;;;;;;4204374;28;20134;-47
2021/07/11 09:17:16;;;;;;;0.10;0.10;;;24.30;70.90;;;;;;4205449;28;20132;-50
2021/07/11 09:19:41;;;;;;;0.22;0.22;;;24.30;70.90;;;;;;4203509;28;20064;-52
2021/07/11 09:22:06;;;;;;;0.38;0.38;;;24.30;71.00;;;;;;4206042;28;20091;-46
2021/07/11 09:24:29;;;;;;;0.77;0.77;;;24.30;71.90;;;;;;4207120;28;20482;-48
2021/07/11 09:26:52;;;;;;;0.38;0.38;;;24.30;71.00;;;;;;4192193;28;20055;-47
2021/07/11 09:29:25;;;;;;;0.00;0.00;;;24.30;70.80;;;;;;4202668;28;20044;-47
2021/07/11 09:31:48;;;;;;;0.10;0.10;;;24.30;70.80;;;;;;4203013;28;20491;-51
2021/07/11 09:34:10;;;;;;;0.13;0.13;;;24.30;70.60;;;;;;4204612;28;20098;-49
2021/07/11 09:36:32;;;;;;;0.13;0.13;;;24.30;70.70;;;;;;4203169;28;20417;-48
2021/07/11 09:38:56;;;;;;;0.20;0.20;;;24.30;70.70;;;;;;4206080;27;20756;-50
2021/07/11 09:41:21;;;;;;;0.70;0.70;;;24.30;70.60;;;;;;4206350;28;20052;-48
2021/07/11 09:43:44;;;;;;;0.47;0.47;;;24.40;70.60;;;;;;4204885;28;20044;-48
2021/07/11 09:46:12;;;;;;;0.13;0.10;;;24.40;70.60;;;;;;4203865;28;20810;-51
2021/07/11 09:48:36;;;;;;;0.10;0.10;;;24.40;70.60;;;;;;4201292;28;20054;-52
2021/07/11 09:50:58;;;;;;;0.28;0.28;;;24.30;70.60;;;;;;4201832;28;20056;-53
2021/07/11 09:53:25;;;;;;;0.40;0.28;;;24.40;70.40;;;;;;4206154;28;20044;-47
2021/07/11 09:55:47;;;;;;;0.20;0.20;;;24.40;70.20;;;;;;4204127;28;20081;-49
2021/07/11 09:58:11;;;;;;;0.10;0.10;;;24.30;70.20;;;;;;4203411;28;20110;-46
2021/07/11 10:00:35;;;;;;;0.15;0.15;;;24.30;70.20;;;;;;4201971;28;20040;-50
2021/07/11 10:02:59;;;;;;;0.25;0.25;;;24.40;70.30;;;;;;4205612;28;20449;-48
2021/07/11 10:05:24;;;;;;;0.47;0.47;;;24.40;70.30;;;;;;4206163;28;20063;-46
2021/07/11 10:07:46;;;;;;;0.10;0.10;;;24.40;70.20;;;;;;4206466;28;20127;-49
2021/07/11 10:10:10;;;;;;;0.30;0.30;;;24.40;70.20;;;;;;4205001;28;20747;-48
2021/07/11 10:12:32;;;;;;;0.13;0.13;;;24.40;70.10;;;;;;4205751;28;20068;-48
2021/07/11 10:14:54;;;;;;;0.95;0.85;;;24.40;70.00;;;;;;4206469;28;20742;-47
2021/07/11 10:17:18;;;;;;;0.10;0.10;;;24.40;70.00;;;;;;4205478;28;20137;-48
2021/07/11 10:19:44;;;;;;;0.77;0.77;;;24.40;69.90;;;;;;4202535;28;20059;-45
2021/07/11 10:22:15;;;;;;;0.32;0.32;;;24.50;69.80;;;;;;4203386;28;20101;-54
2021/07/11 10:24:41;;;;;;;0.20;0.20;;;24.50;69.70;;;;;;4203162;28;20044;-52
2021/07/11 10:27:04;;;;;;;0.20;0.20;;;24.50;69.70;;;;;;4201815;28;20058;-49
2021/07/11 10:29:25;;;;;;;2.33;0.65;;;24.50;69.50;;;;;;4205015;28;20474;-52
2021/07/11 10:31:49;;;;;;;0.15;0.15;;;24.50;69.30;;;;;;4205649;28;20076;-48
2021/07/11 10:34:12;;;;;;;0.63;0.63;;;24.50;69.20;;;;;;4203219;28;20048;-50
2021/07/11 10:36:39;;;;;;;0.10;0.10;;;24.60;69.20;;;;;;4203080;28;20071;-51
2021/07/11 10:39:05;;;;;;;0.00;0.00;;;24.70;69.10;;;;;;4201427;28;20482;-49
2021/07/11 10:41:29;;;;;;;0.20;0.20;;;24.70;69.00;;;;;;4206067;28;20059;-45
2021/07/11 10:44:03;;;;;;;0.38;0.38;;;24.80;69.00;;;;;;4204971;28;20052;-48
2021/07/11 10:46:31;;;;;;;0.55;0.55;;;24.80;69.80;;;;;;4204435;28;20063;-49
2021/07/11 10:48:54;;;;;;;0.03;0.03;;;24.80;68.70;;;;;;4205347;28;20064;-48
2021/07/11 10:51:20;;;;;;;0.00;0.00;;;24.80;68.70;;;;;;4204311;28;20059;-47
2021/07/11 10:53:42;;;;;;;0.25;0.25;;;24.80;68.60;;;;;;4201167;28;20062;-52
2021/07/11 10:56:06;;;;;;;0.10;0.10;;;24.80;69.30;;;;;;4202523;28;20162;-55
2021/07/11 10:58:38;;;;;;;0.38;0.15;;;24.80;68.40;;;;;;4205866;28;20039;-51
2021/07/11 11:01:01;;;;;;;0.00;0.00;;;24.90;68.40;;;;;;4203622;28;20162;-49
2021/07/11 11:03:25;;;;;;;0.45;0.45;;;24.90;68.40;;;;;;4208147;28;20141;-53
2021/07/11 11:05:49;;;;;;;1.23;1.08;;;24.90;68.40;;;;;;4206858;28;20502;-48
2021/07/11 11:08:13;;;;;;;0.15;0.15;;;24.90;68.40;;;;;;4206209;28;20054;-51
2021/07/11 11:10:38;;;;;;;0.45;0.45;;;24.90;68.30;;;;;;4205629;28;20039;-49
2021/07/11 11:13:11;;;;;;;0.47;0.47;;;24.90;68.30;;;;;;4207048;28;20048;-48
2021/07/11 11:15:45;;;;;;;0.03;0.03;;;24.90;68.20;;;;;;4205133;28;20080;-51
2021/07/11 11:18:21;;;;;;;0.50;0.50;;;25.00;68.30;;;;;;4205297;28;20047;-47
2021/07/11 11:20:44;;;;;;;1.38;1.30;;;25.00;68.30;;;;;;4207693;28;20059;-46
2021/07/11 11:23:09;;;;;;;0.10;0.10;;;25.00;68.20;;;;;;4205311;28;20457;-51
2021/07/11 11:25:32;;;;;;;0.10;0.10;;;25.00;68.30;;;;;;4204252;28;20133;-49
2021/07/11 11:27:56;;;;;;;0.00;0.00;;;25.00;68.30;;;;;;4208538;28;20048;-46
2021/07/11 11:30:22;;;;;;;0.17;0.17;;;25.00;68.30;;;;;;4190160;28;20049;-47
2021/07/11 11:32:49;;;;;;;1.27;0.47;;;25.00;68.40;;;;;;4190165;28;20048;-47
2021/07/11 11:35:17;;;;;;;0.60;0.60;;;25.00;68.40;;;;;;4189027;28;20056;-52
2021/07/11 11:37:46;;;;;;;0.00;0.00;;;25.00;68.40;;;;;;4189264;28;20053;-47
2021/07/11 11:40:11;;;;;;;0.10;0.10;;;25.00;68.50;;;;;;4188450;28;20449;-50
2021/07/11 11:42:34;;;;;;;0.52;0.52;;;24.90;68.60;;;;;;4191096;28;20153;-52
2021/07/11 11:45:05;;;;;;;0.22;0.22;;;24.90;68.70;;;;;;4207752;28;20557;-52
2021/07/11 11:47:29;;;;;;;0.00;0.00;;;24.90;68.90;;;;;;4207887;28;20105;-52
2021/07/11 11:49:51;;;;;;;0.60;0.60;;;24.90;69.10;;;;;;4206921;28;20056;-51
2021/07/11 11:52:12;;;;;;;0.30;0.30;;;24.90;69.30;;;;;;4206103;28;20110;-48
2021/07/11 11:54:37;;;;;;;0.52;0.52;;;24.80;69.30;;;;;;4204983;28;20228;-52
2021/07/11 11:57:00;;;;;;;0.10;0.10;;;24.80;70.40;;;;;;4208334;28;20048;-53
2021/07/11 11:59:22;;;;;;;0.08;0.08;;;24.80;69.60;;;;;;4207324;28;20074;-48
2021/07/11 12:01:45;;;;;;;0.05;0.05;;;24.80;69.80;;;;;;4206193;28;20083;-49
2021/07/11 12:04:11;;;;;;;9.82;1.30;;;24.70;69.90;;;;;;4204881;28;20059;-51
2021/07/11 12:06:33;;;;;;;0.55;0.55;;;24.70;70.20;;;;;;4204077;28;20059;-47
2021/07/11 12:08:59;;;;;;;0.30;0.30;;;24.70;70.30;;;;;;4207945;28;20071;-52
2021/07/11 12:11:22;;;;;;;0.25;0.25;;;24.60;70.50;;;;;;4206193;28;20080;-51
2021/07/11 12:13:44;;;;;;;0.38;0.38;;;24.60;70.60;;;;;;4208029;28;20097;-52
2021/07/11 12:16:09;;;;;;;0.20;0.20;;;24.60;70.80;;;;;;4205350;28;20048;-51
2021/07/11 12:18:45;;;;;;;0.35;0.35;;;24.50;70.80;;;;;;4204076;28;20051;-50
2021/07/11 12:21:09;;;;;;;0.00;0.00;;;24.50;71.00;;;;;;4205446;28;20060;-50
2021/07/11 12:23:31;;;;;;;0.47;0.47;;;24.50;72.00;;;;;;4204173;28;20554;-51
2021/07/11 12:26:00;;;;;;;0.00;0.00;;;24.50;71.30;;;;;;4207928;28;20044;-54
2021/07/11 12:28:22;;;;;;;0.00;0.00;;;24.50;71.40;;;;;;4191376;28;20597;-52
2021/07/11 12:30:46;;;;;;;0.10;0.10;;;24.50;71.50;;;;;;4205904;28;20051;-54